createdAt,value
2022-11-30T00:05:02.256Z,101842.16
2022-11-30T00:12:04.049Z,101848.44
2022-11-30T00:19:05.614Z,101852.84
2022-11-30T00:26:08.923Z,101844.97
2022-11-30T00:33:10.519Z,101845.03
2022-11-30T00:40:12.639Z,101846.13
2022-11-30T00:47:14.195Z,101842.38
2022-11-30T00:54:15.798Z,101854.84
2022-11-30T01:01:17.437Z,101853.16
2022-11-30T01:08:19.064Z,101862.94
2022-11-30T01:15:20.639Z,101856.72
2022-11-30T01:22:22.228Z,101865.63
2022-11-30T01:29:23.806Z,101872.75
2022-11-30T01:36:26.177Z,101865.63
2022-11-30T01:43:54.075Z,101867.41
2022-11-30T01:50:55.770Z,101871.13
2022-11-30T01:58:00.811Z,101869.31
2022-11-30T02:05:02.386Z,101875.69
2022-11-30T02:12:05.652Z,101876.50
2022-11-30T02:19:25.913Z,101875.66
2022-11-30T02:26:39.823Z,101875.69
2022-11-30T02:33:41.468Z,101881.03
2022-11-30T02:40:43.061Z,101882.13
2022-11-30T02:47:55.823Z,101884.84
2022-11-30T02:55:02.005Z,101881.19
2022-11-30T03:02:03.564Z,101876.75
2022-11-30T03:09:05.242Z,101884.78
2022-11-30T03:16:08.230Z,101891.97
2022-11-30T03:23:10.450Z,101891.72
2022-11-30T03:30:12.510Z,101899.72
2022-11-30T03:37:14.099Z,101906.06
2022-11-30T03:44:15.900Z,101902.56
2022-11-30T03:51:17.529Z,101904.28
2022-11-30T03:58:19.109Z,101911.47
2022-11-30T04:05:22.426Z,101900.72
2022-11-30T04:12:24.019Z,101913.41
2022-11-30T04:19:25.640Z,101919.66
2022-11-30T04:26:27.184Z,101912.47
2022-11-30T04:33:28.819Z,101921.41
2022-11-30T04:40:30.401Z,101934.72
2022-11-30T04:47:31.998Z,101936.81
2022-11-30T04:54:33.578Z,101936.63
2022-11-30T05:01:35.150Z,101939.47
2022-11-30T05:08:36.810Z,101937.75
2022-11-30T05:15:38.367Z,101944.81
2022-11-30T05:22:39.940Z,101955.50
2022-11-30T05:29:41.549Z,101964.53
2022-11-30T05:36:43.146Z,101965.28
2022-11-30T05:43:44.770Z,101973.28
2022-11-30T05:50:46.316Z,101977.09
2022-11-30T05:57:47.882Z,101973.41
2022-11-30T06:04:49.775Z,101987.66
2022-11-30T06:11:51.516Z,101994.78
2022-11-30T06:18:53.417Z,101992.91
2022-11-30T06:25:55.034Z,102006.41
2022-11-30T06:32:56.678Z,101999.19
2022-11-30T06:40:06.549Z,102003.59
2022-11-30T06:47:08.911Z,102008.78
2022-11-30T06:54:10.495Z,102024.00
2022-11-30T07:01:13.907Z,102027.53
2022-11-30T07:08:16.129Z,102028.41
2022-11-30T07:15:17.936Z,102030.97
2022-11-30T07:22:19.530Z,102040.78
2022-11-30T07:29:21.120Z,102042.66
2022-11-30T07:36:23.471Z,102059.56
2022-11-30T07:43:25.028Z,102058.75
2022-11-30T07:50:26.691Z,102060.44
2022-11-30T07:57:28.367Z,102066.81
2022-11-30T08:04:30.025Z,102069.53
2022-11-30T08:11:33.192Z,102062.44
2022-11-30T08:18:34.814Z,102075.66
2022-11-30T08:25:36.390Z,102074.00
2022-11-30T08:32:37.999Z,102084.63
2022-11-30T08:39:39.623Z,102090.03
2022-11-30T08:46:56.806Z,102096.84
2022-11-30T08:53:58.783Z,102108.41
2022-11-30T09:01:16.770Z,102097.63
2022-11-30T09:08:18.330Z,102094.78
2022-11-30T09:15:19.952Z,102107.97
2022-11-30T09:22:21.770Z,102104.47
2022-11-30T09:29:23.783Z,102113.28
2022-11-30T09:36:27.223Z,102092.66
2022-11-30T09:43:30.908Z,102102.38
2022-11-30T09:50:34.926Z,102102.16
2022-11-30T09:57:52.396Z,102093.19
2022-11-30T10:04:54.014Z,102092.94
2022-11-30T10:12:01.355Z,102096.19
2022-11-30T10:19:08.862Z,102092.56
2022-11-30T10:26:14.658Z,102101.44
2022-11-30T10:33:18.455Z,102089.66
2022-11-30T10:40:40.790Z,102092.09
2022-11-30T10:48:04.802Z,102093.75
2022-11-30T10:55:14.911Z,102084.34
2022-11-30T11:02:45.760Z,102098.97
2022-11-30T11:09:51.074Z,102086.34
2022-11-30T11:17:18.478Z,102101.22
2022-11-30T11:24:20.921Z,102104.25
2022-11-30T11:31:31.718Z,102109.66
2022-11-30T11:38:42.997Z,102099.28
2022-11-30T11:45:50.733Z,102110.63
2022-11-30T11:53:15.424Z,102113.53
2022-11-30T12:00:21.564Z,102117.78
2022-11-30T12:07:32.928Z,102111.41
2022-11-30T12:14:35.256Z,102125.69
2022-11-30T12:21:46.684Z,102114.09
2022-11-30T12:29:14.556Z,102118.66
2022-11-30T12:36:52.936Z,102118.50
2022-11-30T12:44:00.553Z,102122.06
2022-11-30T12:51:17.369Z,102118.72
2022-11-30T12:58:41.543Z,102131.34
2022-11-30T13:05:45.452Z,102130.75
2022-11-30T13:12:49.002Z,102141.38
2022-11-30T13:20:16.291Z,102141.38
2022-11-30T13:27:31.138Z,102151.81
2022-11-30T13:34:32.891Z,102153.41
2022-11-30T13:41:35.045Z,102154.44
2022-11-30T13:48:41.134Z,102160.84
2022-11-30T13:55:42.617Z,102148.66
2022-11-30T14:02:44.088Z,102162.66
2022-11-30T14:09:56.109Z,102168.19
2022-11-30T14:16:57.761Z,102163.78
2022-11-30T14:24:01.849Z,102167.53
2022-11-30T14:31:03.489Z,102186.44
2022-11-30T14:38:05.221Z,102188.88
2022-11-30T14:45:18.302Z,102204.06
2022-11-30T14:52:57.625Z,102213.13
2022-11-30T14:59:59.324Z,102207.88
2022-11-30T15:07:02.215Z,102198.34
2022-11-30T15:14:08.877Z,102205.59
2022-11-30T15:21:17.273Z,102209.19
2022-11-30T15:28:24.585Z,102219.09
2022-11-30T15:35:34.284Z,102214.63
2022-11-30T15:42:40.626Z,102212.84
2022-11-30T15:49:50.972Z,102223.59
2022-11-30T15:56:56.719Z,102213.75
2022-11-30T16:04:03.892Z,102222.63
2022-11-30T16:11:07.995Z,102229.69
2022-11-30T16:18:17.328Z,102236.84
2022-11-30T16:25:20.764Z,102244.91
2022-11-30T16:32:22.505Z,102247.53
2022-11-30T16:39:24.047Z,102244.00
2022-11-30T16:46:26.973Z,102257.25
2022-11-30T16:53:28.941Z,102262.53
2022-11-30T17:00:30.611Z,102268.81
2022-11-30T17:07:32.220Z,102273.28
2022-11-30T17:14:33.850Z,102259.97
2022-11-30T17:21:36.415Z,102275.09
2022-11-30T17:28:38.017Z,102276.84
2022-11-30T17:35:42.773Z,102283.06
2022-11-30T17:42:44.357Z,102293.69
2022-11-30T17:49:45.995Z,102286.56
2022-11-30T17:56:47.916Z,102290.09
2022-11-30T18:03:49.651Z,102298.13
2022-11-30T18:10:51.337Z,102296.34
2022-11-30T18:17:55.037Z,102306.22
2022-11-30T18:24:56.610Z,102301.78
2022-11-30T18:31:58.269Z,102313.28
2022-11-30T18:38:59.886Z,102326.63
2022-11-30T18:46:02.959Z,102330.19
2022-11-30T18:53:04.612Z,102329.38
2022-11-30T19:00:06.860Z,102331.16
2022-11-30T19:07:08.475Z,102339.19
2022-11-30T19:14:12.176Z,102342.72
2022-11-30T19:21:15.340Z,102341.78
2022-11-30T19:28:17.001Z,102345.34
2022-11-30T19:35:18.614Z,102346.25
2022-11-30T19:42:20.255Z,102340.00
2022-11-30T19:49:21.888Z,102358.66
2022-11-30T19:56:23.762Z,102361.34
2022-11-30T20:03:25.564Z,102360.47
2022-11-30T20:10:31.909Z,102371.09
2022-11-30T20:17:33.744Z,102379.97
2022-11-30T20:24:36.132Z,102387.97
2022-11-30T20:31:43.566Z,102394.19
2022-11-30T20:38:45.258Z,102384.41
2022-11-30T20:45:46.836Z,102388.88
2022-11-30T20:52:48.436Z,102396.81
2022-11-30T20:59:50.026Z,102391.50
2022-11-30T21:06:52.193Z,102389.75
2022-11-30T21:13:54.066Z,102397.75
2022-11-30T21:21:05.969Z,102393.28
2022-11-30T21:28:07.559Z,102403.94
2022-11-30T21:35:09.466Z,102410.16
2022-11-30T21:42:11.065Z,102403.06
2022-11-30T21:49:13.713Z,102406.59
2022-11-30T21:56:17.376Z,102408.38
2022-11-30T22:03:19.749Z,102403.97
2022-11-30T22:10:21.531Z,102399.50
2022-11-30T22:17:23.089Z,102404.84
2022-11-30T22:24:24.703Z,102403.06
2022-11-30T22:31:28.411Z,102405.72
2022-11-30T22:38:30.061Z,102417.25
2022-11-30T22:45:33.087Z,102408.38
2022-11-30T22:53:01.505Z,102403.94
2022-11-30T22:59:56.269Z,102403.94
2022-11-30T23:06:57.828Z,102392.41
2022-11-30T23:13:59.646Z,102390.63
2022-11-30T23:21:41.081Z,102388.84
2022-11-30T23:28:44.344Z,102389.75
2022-11-30T23:35:45.930Z,102387.09
2022-11-30T23:42:47.525Z,102392.44
2022-11-30T23:49:49.796Z,102395.94
2022-11-30T23:56:51.535Z,102393.31
